Time;durP1;ratioP1;P1;durP2;ratioP2;P2;SDS_P1;SDS_P2;PMS_P1;PMS_P2;Temp;Humidity;BMP_temperature;BMP_pressure;BME280_temperature;BME280_humidity;BME280_pressure;Samples;Min_cycle;Max_cycle;Signal;HPM_P1;HPM_P2
2021/06/01 00:02:09;;;;;;;11.12;4.75;;;;;;;6.08;93.12;100278.86;1698557;81;21068;-74
2021/06/01 00:04:38;;;;;;;9.20;4.50;;;;;;;6.06;93.18;100276.70;1661776;85;22245;-74
2021/06/01 00:07:04;;;;;;;11.15;4.47;;;;;;;6.05;93.33;100276.30;1625165;85;21141;-73
2021/06/01 00:09:32;;;;;;;10.82;4.83;;;;;;;6.03;93.43;100278.08;1617064;87;21144;-73
2021/06/01 00:11:59;;;;;;;14.47;4.83;;;;;;;6.01;93.52;100282.46;1617615;87;21147;-73
2021/06/01 00:14:27;;;;;;;9.38;4.65;;;;;;;6.00;93.54;100279.86;1621963;87;21469;-73
2021/06/01 00:16:55;;;;;;;11.55;4.42;;;;;;;5.99;93.57;100286.84;1621290;83;21116;-69
2021/06/01 00:19:24;;;;;;;8.83;4.17;;;;;;;5.98;93.61;100292.98;1598640;88;21662;-70
2021/06/01 00:21:52;;;;;;;10.75;4.03;;;;;;;5.98;93.77;100292.98;1605016;88;21092;-69
2021/06/01 00:24:19;;;;;;;11.05;4.72;;;;;;;5.96;93.83;100290.83;1597570;88;21884;-69
2021/06/01 00:26:46;;;;;;;6.65;4.17;;;;;;;5.95;93.85;100290.39;1603978;88;21151;-69
2021/06/01 00:29:13;;;;;;;7.78;4.20;;;;;;;5.93;93.88;100280.81;1623322;88;21066;-70
2021/06/01 00:31:42;;;;;;;14.10;3.98;;;;;;;5.91;93.92;100282.59;1624711;82;22379;-75
2021/06/01 00:34:09;;;;;;;16.93;4.28;;;;;;;5.88;93.95;100285.66;1636337;87;21112;-76
2021/06/01 00:36:38;;;;;;;6.40;4.00;;;;;;;5.88;93.95;100279.58;1711400;83;21063;-75
2021/06/01 00:39:07;;;;;;;7.03;3.65;;;;;;;5.87;93.99;100287.02;1711844;83;21059;-75
2021/06/01 00:41:34;;;;;;;12.20;4.47;;;;;;;5.86;94.02;100281.34;1711713;83;21082;-75
2021/06/01 00:44:01;;;;;;;7.83;3.60;;;;;;;5.83;94.14;100290.11;1683445;83;21162;-76
2021/06/01 00:46:33;;;;;;;7.17;3.98;;;;;;;5.81;94.17;100284.48;1672241;84;21078;-78
2021/06/01 00:49:00;;;;;;;7.37;3.70;;;;;;;5.79;94.19;100291.48;1707282;84;21111;-77
2021/06/01 00:51:31;;;;;;;7.87;4.20;;;;;;;5.76;94.28;100291.53;1705035;83;21122;-77
2021/06/01 00:53:58;;;;;;;13.08;4.00;;;;;;;5.74;94.29;100291.55;1678430;84;21108;-77
2021/06/01 00:56:25;;;;;;;10.88;4.33;;;;;;;5.71;94.24;100296.83;1656691;84;21281;-78
2021/06/01 00:58:53;;;;;;;8.00;4.00;;;;;;;5.69;94.24;100294.67;1646139;87;21075;-77
2021/06/01 01:01:20;;;;;;;6.47;3.90;;;;;;;5.67;94.34;100300.37;1666005;79;21526;-69
2021/06/01 01:03:49;;;;;;;8.03;3.20;;;;;;;5.65;94.22;100299.06;1749775;81;21033;-72
2021/06/01 01:06:36;;;;;;;8.98;4.15;;;;;;;5.62;94.33;100297.81;1749690;81;21108;-68
2021/06/01 01:09:09;;;;;;;10.32;3.90;;;;;;;5.60;94.44;100301.34;1749771;81;22272;-69
2021/06/01 01:11:49;;;;;;;7.65;4.42;;;;;;;5.56;94.54;100301.81;1749892;81;21349;-68
2021/06/01 01:14:27;;;;;;;10.32;3.67;;;;;;;5.55;94.79;100296.18;1749860;81;24412;-69
2021/06/01 01:17:12;;;;;;;7.33;3.70;;;;;;;5.53;94.89;100291.86;1705026;80;21114;-80
2021/06/01 01:20:07;;;;;;;8.38;4.12;;;;;;;5.51;94.92;100292.33;1683105;85;21123;-79
2021/06/01 01:22:37;;;;;;;11.33;4.28;;;;;;;5.48;94.94;100284.09;1682822;85;21207;-81
2021/06/01 01:25:21;;;;;;;7.92;3.90;;;;;;;5.46;94.93;100285.86;1682974;85;21111;-80
2021/06/01 01:28:39;;;;;;;8.75;3.83;;;;;;;5.44;94.94;100291.09;1682890;85;21153;-80
2021/06/01 01:31:35;;;;;;;9.45;4.20;;;;;;;5.39;95.09;100286.38;1666697;81;21099;-77
2021/06/01 01:34:03;;;;;;;8.78;4.90;;;;;;;5.40;95.38;100288.54;1628449;88;21013;-77
2021/06/01 01:36:30;;;;;;;6.42;4.80;;;;;;;5.41;95.64;100291.59;1623511;88;21147;-79
2021/06/01 01:38:58;;;;;;;6.70;3.67;;;;;;;5.40;95.75;100284.63;1605852;88;21064;-78
2021/06/01 01:41:25;;;;;;;9.85;4.33;;;;;;;5.40;95.82;100288.09;1618195;86;21821;-78
2021/06/01 01:43:53;;;;;;;7.35;4.25;;;;;;;5.38;95.75;100286.39;1614294;88;21656;-79
2021/06/01 01:46:34;;;;;;;8.73;4.00;;;;;;;5.38;95.78;100294.22;1625265;81;21004;-70
2021/06/01 01:48:59;;;;;;;9.10;4.05;;;;;;;5.37;95.74;100296.42;1691573;84;21174;-69
2021/06/01 01:51:38;;;;;;;10.28;4.45;;;;;;;5.35;95.77;100293.83;1692526;84;21655;-71
2021/06/01 01:54:20;;;;;;;7.53;4.00;;;;;;;5.34;95.79;100293.87;1692245;83;21099;-71
2021/06/01 01:56:53;;;;;;;8.43;4.22;;;;;;;5.35;95.95;100293.83;1686935;85;21086;-71
2021/06/01 01:59:27;;;;;;;6.95;4.15;;;;;;;5.35;96.04;100298.19;1659884;83;22186;-71
2021/06/01 02:01:54;;;;;;;9.23;4.25;;;;;;;5.37;96.20;100296.42;1670922;80;21103;-76
2021/06/01 02:04:24;;;;;;;10.80;3.77;;;;;;;5.36;96.28;100292.95;1682597;85;21139;-77
2021/06/01 02:06:51;;;;;;;7.33;4.08;;;;;;;5.37;96.34;100287.28;1682739;85;21554;-78
2021/06/01 02:09:18;;;;;;;8.73;3.87;;;;;;;5.39;96.42;100294.66;1682772;85;21156;-77
2021/06/01 02:11:45;;;;;;;10.70;4.37;;;;;;;5.40;96.33;100291.15;1682784;85;21095;-76
2021/06/01 02:14:12;;;;;;;7.45;4.03;;;;;;;5.39;96.41;100289.44;1673953;83;21631;-78
2021/06/01 02:16:41;;;;;;;13.32;4.20;;;;;;;5.42;96.40;100294.61;1671650;80;21053;-82
2021/06/01 02:19:16;;;;;;;10.10;4.03;;;;;;;5.43;96.53;100289.83;1678117;85;21180;-81
2021/06/01 02:25:07;;;;;;;11.55;3.62;;;;;;;5.45;96.35;100286.30;1678231;85;21109;-81
2021/06/01 02:27:43;;;;;;;13.00;4.05;;;;;;;5.49;96.38;100291.03;1677625;85;21105;-81
2021/06/01 02:30:18;;;;;;;9.68;4.05;;;;;;;5.52;96.49;100289.70;1677965;85;21637;-81
2021/06/01 02:32:52;;;;;;;14.43;4.30;;;;;;;5.56;96.52;100292.66;1712716;78;21765;-70
2021/06/01 02:35:34;;;;;;;9.00;4.22;;;;;;;5.61;96.57;100296.11;1738393;81;21087;-71
2021/06/01 02:38:02;;;;;;;6.45;3.85;;;;;;;5.66;96.55;100296.04;1707946;81;28119;-69
2021/06/01 02:40:29;;;;;;;8.88;4.42;;;;;;;5.74;96.66;100297.23;1689153;82;21637;-69
2021/06/01 02:43:00;;;;;;;9.73;4.45;;;;;;;5.80;96.71;100295.39;1689660;82;21070;-70
2021/06/01 02:45:27;;;;;;;6.70;3.95;;;;;;;5.88;96.67;100296.56;1691364;84;21126;-70
2021/06/01 02:47:54;;;;;;;13.65;4.78;;;;;;;5.98;96.73;100294.70;1723624;80;21060;-72
2021/06/01 02:50:21;;;;;;;7.47;4.37;;;;;;;6.07;96.75;100296.75;1744655;81;21446;-72
2021/06/01 02:52:48;;;;;;;7.58;4.37;;;;;;;6.19;96.74;100288.27;1739697;82;21115;-73
2021/06/01 02:55:18;;;;;;;7.47;4.85;;;;;;;6.30;96.70;100290.26;1735789;82;21590;-72
2021/06/01 02:57:45;;;;;;;13.00;4.90;;;;;;;6.39;96.57;100294.02;1735653;82;21067;-75
2021/06/01 03:00:16;;;;;;;8.83;4.45;;;;;;;6.49;96.33;100290.38;1735573;82;21127;-75
2021/06/01 03:02:43;;;;;;;8.65;4.35;;;;;;;6.59;96.09;100294.99;1713864;79;22952;-86
2021/06/01 03:05:11;;;;;;;7.03;4.15;;;;;;;6.70;95.91;100296.97;1646545;87;21139;-85
2021/06/01 03:07:41;;;;;;;7.00;4.05;;;;;;;6.81;95.89;100294.59;1641701;87;21168;-86
2021/06/01 03:10:12;;;;;;;8.00;4.25;;;;;;;6.92;95.66;100288.70;1698797;83;21336;-88
2021/06/01 03:12:48;;;;;;;7.08;3.95;;;;;;;7.02;95.30;100295.50;1723585;81;21372;-88
2021/06/01 03:15:11;;;;;;;7.87;4.37;;;;;;;7.14;94.78;100291.77;1723400;83;21653;-87
2021/06/01 03:17:38;;;;;;;7.00;3.60;;;;;;;7.26;94.42;100301.98;1691293;81;21110;-70
2021/06/01 03:20:06;;;;;;;9.35;4.40;;;;;;;7.39;94.11;100291.27;1663526;86;21148;-70
2021/06/01 03:22:33;;;;;;;9.33;4.42;;;;;;;7.52;93.76;100287.46;1657737;86;21111;-70
2021/06/01 03:25:00;;;;;;;10.50;3.67;;;;;;;7.58;93.39;100274.23;1662972;86;21103;-69
2021/06/01 03:27:28;;;;;;;11.80;4.10;;;;;;;7.82;92.36;100280.66;1663100;86;21095;-70
2021/06/01 03:29:55;;;;;;;10.72;3.92;;;;;;;7.97;91.40;100284.23;1659211;86;21093;-69
2021/06/01 03:32:21;;;;;;;10.20;4.00;;;;;;;8.13;90.82;100286.05;1632267;80;21095;-82
2021/06/01 03:34:48;;;;;;;7.58;4.50;;;;;;;8.30;89.38;100287.39;1626082;86;21711;-82
2021/06/01 03:37:17;;;;;;;9.50;4.28;;;;;;;8.45;88.72;100289.66;1657780;84;21119;-82
2021/06/01 03:39:45;;;;;;;8.53;4.60;;;;;;;8.65;88.61;100283.02;1656871;86;21051;-83
2021/06/01 03:42:12;;;;;;;9.58;4.95;;;;;;;8.86;86.71;100290.34;1656700;86;21095;-74
2021/06/01 03:44:44;;;;;;;7.40;3.70;;;;;;;9.05;84.22;100283.26;1650294;86;21108;-77
2021/06/01 03:47:12;;;;;;;9.25;3.92;;;;;;;9.25;82.69;100280.92;1645314;80;21138;-78
2021/06/01 03:49:39;;;;;;;7.05;3.75;;;;;;;9.43;80.35;100283.44;1689552;84;21150;-78
2021/06/01 03:52:08;;;;;;;6.50;3.80;;;;;;;9.60;79.16;100282.95;1656175;85;21117;-77
2021/06/01 03:54:37;;;;;;;8.53;4.00;;;;;;;9.77;79.03;100272.75;1649864;85;21097;-79
2021/06/01 03:57:07;;;;;;;7.20;4.00;;;;;;;9.99;78.27;100270.77;1653015;85;21089;-77
2021/06/01 03:59:34;;;;;;;9.55;4.65;;;;;;;10.20;77.19;100272.69;1651591;84;21242;-76
2021/06/01 04:02:01;;;;;;;9.78;3.90;;;;;;;10.41;77.23;100272.91;1701134;82;21710;-72
2021/06/01 04:04:27;;;;;;;8.98;3.67;;;;;;;10.62;75.30;100262.09;1644871;85;21087;-74
2021/06/01 04:06:55;;;;;;;4.85;3.85;;;;;;;10.81;73.60;100264.50;1638570;87;21657;-77
2021/06/01 04:09:23;;;;;;;7.28;3.47;;;;;;;11.02;73.17;100272.08;1629161;86;22265;-72
2021/06/01 04:11:50;;;;;;;6.95;3.50;;;;;;;11.19;72.12;100262.69;1634888;87;21146;-75
2021/06/01 04:14:19;;;;;;;5.03;3.45;;;;;;;11.38;70.77;100266.33;1624532;87;21302;-74
2021/06/01 04:16:47;;;;;;;6.12;3.10;;;;;;;11.53;70.16;100265.75;1628377;82;21069;-72
2021/06/01 04:19:15;;;;;;;7.78;3.47;;;;;;;11.77;70.34;100268.34;1658046;84;21092;-72
2021/06/01 04:21:43;;;;;;;10.60;3.90;;;;;;;12.00;68.95;100264.80;1658145;85;21131;-73
2021/06/01 04:24:11;;;;;;;6.95;4.22;;;;;;;12.20;68.24;100264.00;1659420;84;21156;-72
2021/06/01 04:26:38;;;;;;;10.08;3.33;;;;;;;12.38;65.62;100265.86;1658891;86;21101;-72
2021/06/01 04:29:05;;;;;;;9.45;3.62;;;;;;;12.51;64.88;100256.09;1657988;85;21786;-72
2021/06/01 04:31:32;;;;;;;6.90;3.58;;;;;;;12.69;64.54;100256.61;1659015;85;21642;-80
2021/06/01 04:33:59;;;;;;;4.03;3.30;;;;;;;12.88;63.77;100255.80;1694201;81;21163;-78
2021/06/01 04:36:27;;;;;;;6.03;3.30;;;;;;;13.06;62.04;100252.80;1711792;82;21100;-78
2021/06/01 04:38:55;;;;;;;7.58;2.90;;;;;;;13.22;62.13;100257.78;1703204;83;21108;-77
2021/06/01 04:41:22;;;;;;;9.55;3.12;;;;;;;13.28;62.50;100240.82;1699592;83;21088;-78
2021/06/01 04:43:48;;;;;;;8.63;2.90;;;;;;;13.51;60.24;100256.47;1710342;83;21048;-77
2021/06/01 04:46:16;;;;;;;10.13;3.52;;;;;;;13.68;60.55;100254.80;1708625;83;21065;-79
2021/06/01 04:48:42;;;;;;;8.20;2.92;;;;;;;13.83;59.72;100246.13;1684416;80;21194;-75
2021/06/01 04:51:16;;;;;;;7.83;2.75;;;;;;;13.94;59.18;100243.83;1677196;84;21112;-74
2021/06/01 04:53:51;;;;;;;6.25;2.87;;;;;;;14.02;59.72;100241.64;1686464;84;21170;-74
2021/06/01 04:56:19;;;;;;;7.90;3.02;;;;;;;14.25;58.05;100247.58;1677668;84;21132;-74
2021/06/01 04:58:46;;;;;;;10.00;3.17;;;;;;;14.44;57.76;100241.72;1681735;84;21626;-74
2021/06/01 05:01:13;;;;;;;8.50;2.70;;;;;;;14.65;56.97;100234.96;1691048;84;21554;-74
2021/06/01 05:03:41;;;;;;;5.17;2.90;;;;;;;14.84;57.25;100238.38;1694575;78;21104;-73
2021/06/01 05:06:08;;;;;;;7.28;2.90;;;;;;;15.07;56.64;100234.97;1669196;83;21646;-72
2021/06/01 05:08:36;;;;;;;6.62;2.65;;;;;;;15.34;54.93;100231.73;1671714;84;21130;-73
2021/06/01 05:11:03;;;;;;;10.90;3.10;;;;;;;15.55;53.96;100237.16;1654420;84;21099;-73
2021/06/01 05:13:31;;;;;;;8.43;2.98;;;;;;;15.67;52.39;100237.83;1659477;84;21168;-72
2021/06/01 05:15:59;;;;;;;5.03;2.60;;;;;;;15.70;51.86;100232.81;1666770;84;21093;-71
2021/06/01 05:18:26;;;;;;;8.43;2.40;;;;;;;15.73;50.92;100238.84;1727097;78;21168;-72
2021/06/01 05:20:53;;;;;;;4.55;2.47;;;;;;;15.71;51.88;100242.06;1762371;80;21039;-72
2021/06/01 05:23:20;;;;;;;5.08;2.30;;;;;;;15.80;51.13;100241.13;1768285;80;21095;-72
2021/06/01 05:25:47;;;;;;;10.13;2.85;;;;;;;15.89;52.06;100241.94;1763692;80;21108;-73
2021/06/01 05:28:16;;;;;;;8.93;2.40;;;;;;;16.10;52.01;100238.50;1761408;80;21135;-72
2021/06/01 05:30:53;;;;;;;10.80;2.20;;;;;;;16.27;49.17;100245.52;1754895;80;21146;-72
2021/06/01 05:35:43;;;;;;;7.00;2.30;;;;;;;16.22;49.15;100230.28;1683431;84;21093;-74
2021/06/01 05:38:08;;;;;;;5.80;2.05;;;;;;;16.30;50.12;100234.69;1692593;83;21981;-71
2021/06/01 05:40:35;;;;;;;10.25;2.80;;;;;;;16.46;50.10;100235.97;1699682;83;21086;-72
2021/06/01 05:43:03;;;;;;;5.03;2.20;;;;;;;16.77;48.40;100247.80;1686052;83;21487;-73
2021/06/01 05:45:30;;;;;;;7.62;2.42;;;;;;;16.96;47.98;100255.53;1690970;83;21114;-72
2021/06/01 05:47:57;;;;;;;4.72;2.35;;;;;;;16.97;46.97;100245.25;1668942;82;21662;-77
2021/06/01 05:50:25;;;;;;;5.78;2.22;;;;;;;16.89;47.28;100248.03;1675927;84;21080;-78
2021/06/01 05:52:52;;;;;;;8.00;2.10;;;;;;;16.72;46.01;100246.35;1674316;84;21694;-76
2021/06/01 05:55:18;;;;;;;4.47;1.80;;;;;;;16.60;48.29;100241.78;1690284;84;21056;-77
2021/06/01 05:57:45;;;;;;;10.15;1.82;;;;;;;16.79;47.86;100245.06;1683547;84;21601;-77
2021/06/01 06:00:15;;;;;;;11.35;2.12;;;;;;;16.93;46.04;100246.87;1682330;84;21079;-78
2021/06/01 06:02:42;;;;;;;16.27;2.20;;;;;;;16.90;45.89;100248.40;1674455;80;21128;-75
2021/06/01 06:05:11;;;;;;;3.37;1.80;;;;;;;16.89;46.14;100235.58;1692422;82;21133;-77
2021/06/01 06:07:39;;;;;;;3.98;1.57;;;;;;;16.78;46.43;100249.98;1682487;83;21155;-77
2021/06/01 06:10:09;;;;;;;15.50;2.80;;;;;;;16.65;47.30;100245.02;1670647;83;21117;-78
2021/06/01 06:12:37;;;;;;;9.25;1.80;;;;;;;16.68;47.61;100240.37;1688628;84;21125;-77
2021/06/01 06:15:09;;;;;;;12.65;2.30;;;;;;;16.74;45.66;100245.78;1681035;83;21702;-78
2021/06/01 06:17:45;;;;;;;;;;;;;;;16.80;46.82;100238.81;1697769;79;21211;-75
2021/06/01 06:20:13;;;;;;;10.93;1.85;;;;;;;17.10;47.11;100243.19;1720070;82;20269;-74
2021/06/01 06:22:40;;;;;;;7.17;1.70;;;;;;;17.25;45.40;100239.55;1717724;81;21155;-72
2021/06/01 06:25:08;;;;;;;6.37;1.82;;;;;;;17.42;46.03;100248.30;1708427;82;21636;-73
2021/06/01 06:27:35;;;;;;;6.65;1.98;;;;;;;17.69;44.90;100241.20;1713047;82;21107;-77
2021/06/01 06:30:07;;;;;;;9.93;1.55;;;;;;;18.01;46.68;100236.91;1717321;81;21151;-73
2021/06/01 06:32:35;;;;;;;5.20;1.90;;;;;;;18.47;43.35;100247.14;1707363;80;21053;-76
2021/06/01 06:35:04;;;;;;;10.23;1.85;;;;;;;18.80;41.17;100244.50;1648581;85;21106;-79
2021/06/01 06:37:31;;;;;;;5.50;2.00;;;;;;;19.01;42.41;100244.33;1657550;84;21084;-79
2021/06/01 06:39:58;;;;;;;9.65;1.82;;;;;;;19.20;40.93;100239.02;1686685;83;21178;-80
2021/06/01 06:42:25;;;;;;;8.85;1.80;;;;;;;19.43;40.12;100242.22;1687877;83;21058;-77
2021/06/01 06:44:54;;;;;;;9.23;1.98;;;;;;;19.41;39.38;100238.80;1673181;84;21124;-73
2021/06/01 06:50:14;;;;;;;4.80;1.90;;;;;;;18.78;40.59;100249.94;1654514;85;21099;-66
2021/06/01 06:52:41;;;;;;;7.40;1.72;;;;;;;18.56;39.76;100234.52;1628894;85;21623;-67
2021/06/01 06:55:10;;;;;;;9.00;4.33;;;;;;;18.40;41.30;100237.41;1654236;85;21178;-69
2021/06/01 06:57:38;;;;;;;10.78;2.10;;;;;;;18.54;43.03;100227.58;1655659;85;21187;-71
2021/06/01 07:00:10;;;;;;;5.50;2.08;;;;;;;18.62;40.29;100231.44;1646333;85;21156;-67
2021/06/01 07:02:38;;;;;;;11.85;2.10;;;;;;;18.81;41.57;100230.19;1676632;81;21001;-72
2021/06/01 07:05:09;;;;;;;2.17;1.50;;;;;;;19.19;39.06;100237.33;1602961;87;21154;-75
2021/06/01 07:07:37;;;;;;;3.25;1.50;;;;;;;19.34;37.75;100234.88;1618948;86;21153;-74
2021/06/01 07:10:05;;;;;;;16.62;2.20;;;;;;;19.26;39.27;100229.25;1603933;88;21674;-67
2021/06/01 07:12:33;;;;;;;11.28;2.00;;;;;;;19.11;37.68;100239.67;1598274;88;21122;-70
2021/06/01 07:15:03;;;;;;;5.58;1.90;;;;;;;18.79;38.65;100245.45;1607596;88;21107;-69
2021/06/01 07:17:30;;;;;;;8.38;1.87;;;;;;;18.48;41.73;100242.20;1625532;81;21132;-64
2021/06/01 07:19:57;;;;;;;9.88;1.57;;;;;;;18.40;40.19;100241.86;1675403;82;21063;-63
2021/06/01 07:22:24;;;;;;;4.80;1.62;;;;;;;18.33;43.37;100232.08;1675455;84;21087;-65
2021/06/01 07:24:51;;;;;;;11.70;2.10;;;;;;;18.24;42.18;100239.36;1647950;86;21614;-64
2021/06/01 07:27:20;;;;;;;5.40;1.80;;;;;;;18.04;40.87;100240.72;1676977;84;21131;-66
2021/06/01 07:29:48;;;;;;;4.67;1.75;;;;;;;17.77;40.99;100236.20;1669380;83;23112;-65
2021/06/01 07:32:15;;;;;;;7.78;2.08;;;;;;;17.56;41.47;100233.13;1673328;85;21120;-65
2021/06/01 07:34:42;;;;;;;8.03;2.30;;;;;;;17.47;41.89;100227.55;1655140;81;21140;-69
2021/06/01 07:37:09;;;;;;;3.85;1.60;;;;;;;17.56;44.06;100232.28;1652812;86;21195;-73
2021/06/01 07:39:36;;;;;;;5.58;1.65;;;;;;;17.74;41.49;100233.75;1662541;85;21089;-80
2021/06/01 07:42:05;;;;;;;6.87;1.62;;;;;;;18.00;40.89;100225.40;1641498;86;21162;-79
2021/06/01 07:44:33;;;;;;;8.20;1.85;;;;;;;18.44;40.56;100221.55;1641717;85;21625;-77
2021/06/01 07:47:00;;;;;;;9.30;1.90;;;;;;;19.11;39.42;100229.00;1640710;86;21693;-75
2021/06/01 07:49:27;;;;;;;7.78;1.65;;;;;;;19.12;36.21;100224.02;1667533;81;21159;-73
2021/06/01 07:51:55;;;;;;;6.58;1.42;;;;;;;19.00;37.43;100233.30;1692286;83;21046;-75
2021/06/01 07:54:22;;;;;;;4.30;1.65;;;;;;;19.24;38.08;100236.51;1695414;83;21135;-75
2021/06/01 07:56:51;;;;;;;5.53;1.42;;;;;;;19.48;38.72;100232.05;1692151;83;21122;-72
2021/06/01 07:59:18;;;;;;;11.33;2.08;;;;;;;19.99;37.58;100222.16;1676735;82;21085;-71
2021/06/01 08:01:47;;;;;;;8.48;1.47;;;;;;;20.29;35.82;100229.22;1708946;82;21635;-73
2021/06/01 08:04:15;;;;;;;4.33;1.70;;;;;;;20.06;35.78;100237.64;1676313;80;21100;-72
2021/06/01 08:06:42;;;;;;;3.90;1.62;;;;;;;19.60;36.86;100228.12;1674198;85;21906;-70
2021/06/01 08:09:09;;;;;;;11.05;1.90;;;;;;;19.43;37.58;100232.88;1673174;85;21107;-71
2021/06/01 08:11:35;;;;;;;5.80;2.08;;;;;;;19.36;36.71;100228.09;1653035;86;21190;-71
2021/06/01 08:14:03;;;;;;;12.28;2.25;;;;;;;19.55;39.51;100222.27;1677535;83;21125;-72
2021/06/01 08:16:32;;;;;;;9.33;1.90;;;;;;;19.91;36.93;100224.92;1676602;83;21067;-74
2021/06/01 08:19:04;;;;;;;6.42;1.65;;;;;;;20.20;35.42;100213.87;1659949;79;21105;-74
2021/06/01 08:24:11;;;;;;;13.60;1.50;;;;;;;20.49;35.23;100210.78;1663360;84;21119;-75
2021/06/01 08:26:39;;;;;;;7.50;1.42;;;;;;;20.31;34.77;100211.24;1675388;85;21116;-78
2021/06/01 08:29:07;;;;;;;6.25;1.40;;;;;;;20.10;35.42;100213.70;1672550;85;21083;-80
2021/06/01 08:31:35;;;;;;;6.55;1.40;;;;;;;20.02;34.38;100205.91;1664793;85;21102;-82
2021/06/01 08:34:02;;;;;;;6.22;1.52;;;;;;;20.15;35.46;100208.00;1687740;81;21107;-74
2021/06/01 08:36:29;;;;;;;8.50;2.02;;;;;;;20.52;35.27;100199.83;1647167;85;21112;-74
2021/06/01 08:38:56;;;;;;;5.30;1.80;;;;;;;20.99;33.22;100203.33;1691141;83;21081;-73
2021/06/01 08:41:23;;;;;;;6.12;1.52;;;;;;;20.90;33.32;100204.05;1684791;84;21665;-79
2021/06/01 08:43:53;;;;;;;6.87;1.62;;;;;;;20.68;33.06;100193.72;1688586;84;21127;-73
2021/06/01 08:46:27;;;;;;;3.05;1.62;;;;;;;20.76;34.27;100205.14;1685090;84;21663;-73
2021/06/01 08:48:52;;;;;;;10.70;1.33;;;;;;;20.84;32.40;100203.19;1693105;80;21386;-73
2021/06/01 08:51:21;;;;;;;6.92;1.47;;;;;;;20.83;32.57;100200.16;1702191;83;21095;-71
2021/06/01 08:53:50;;;;;;;9.93;1.98;;;;;;;20.84;33.23;100196.50;1710054;82;21057;-75
2021/06/01 08:56:18;;;;;;;7.55;1.65;;;;;;;20.59;32.49;100198.45;1698290;82;21213;-74
2021/06/01 08:58:50;;;;;;;8.20;1.52;;;;;;;20.26;32.46;100193.83;1696367;82;21045;-73
2021/06/01 09:01:19;;;;;;;5.10;1.60;;;;;;;19.96;34.85;100186.31;1697807;83;21038;-80
2021/06/01 09:03:53;;;;;;;5.70;1.32;;;;;;;19.80;35.04;100194.14;1690567;83;21087;-78
2021/06/01 09:06:37;;;;;;;3.52;1.20;;;;;;;19.81;34.61;100199.87;1671837;84;21535;-78
2021/06/01 09:09:38;;;;;;;10.28;1.60;;;;;;;19.83;34.08;100189.92;1630999;86;21088;-77
2021/06/01 09:21:04;;;;;;;3.87;1.20;;;;;;;19.56;34.68;100190.59;1671265;83;21602;-77
2021/06/01 09:22:39;;;;;;;7.50;1.30;;;;;;;19.18;37.15;100190.22;1650277;84;21120;-72
2021/06/01 09:25:30;;;;;;;12.63;2.12;;;;;;;19.08;37.05;100185.54;1663449;84;21081;-73
2021/06/01 09:27:54;;;;;;;6.53;1.35;;;;;;;19.18;35.28;100187.55;1659405;86;21048;-74
2021/06/01 09:30:51;;;;;;;;;;;;;;;19.06;35.88;100191.47;1655908;86;21047;-73
2021/06/01 09:33:24;;;;;;;3.98;1.40;;;;;;;18.91;35.69;100185.03;1676373;83;20577;-76
2021/06/01 09:35:59;;;;;;;7.78;1.77;;;;;;;18.86;35.15;100188.02;1627718;86;21770;-75
2021/06/01 09:38:40;;;;;;;7.67;1.52;;;;;;;18.82;36.48;100194.56;1616970;87;20997;-75
2021/06/01 09:41:21;;;;;;;7.92;1.70;;;;;;;18.91;35.31;100183.23;1636617;86;20963;-74
2021/06/01 09:43:59;;;;;;;10.38;1.80;;;;;;;18.98;35.42;100184.51;1634536;86;21992;-74
2021/06/01 09:46:31;;;;;;;13.10;1.80;;;;;;;18.81;37.08;100187.50;1616569;87;21025;-75
2021/06/01 09:49:19;;;;;;;5.15;1.47;;;;;;;18.61;36.27;100189.73;1661933;82;21047;-76
2021/06/01 09:52:08;;;;;;;4.53;1.50;;;;;;;18.45;35.42;100192.60;1714750;82;21007;-74
2021/06/01 09:54:50;;;;;;;8.85;1.45;;;;;;;18.36;36.19;100192.39;1727604;81;21049;-75
2021/06/01 09:57:23;;;;;;;5.72;1.50;;;;;;;18.59;38.33;100178.31;1725234;83;21039;-74
2021/06/01 10:00:26;;;;;;;9.55;3.20;;;;;;;19.00;35.00;100175.91;1726214;83;21023;-72
2021/06/01 10:05:53;;;;;;;7.22;2.55;;;;;;;19.19;33.80;100174.59;1760457;79;22562;-75
2021/06/01 10:08:26;;;;;;;7.75;2.40;;;;;;;19.11;33.34;100180.95;1728299;82;21047;-77
2021/06/01 10:10:56;;;;;;;8.18;1.47;;;;;;;19.31;34.07;100172.36;1727571;82;21121;-74
2021/06/01 10:13:28;;;;;;;9.45;1.90;;;;;;;19.46;32.74;100169.91;1725176;82;22293;-74
2021/06/01 10:16:01;;;;;;;5.22;1.87;;;;;;;19.39;32.06;100175.30;1727039;82;20974;-74
2021/06/01 10:18:31;;;;;;;7.85;2.00;;;;;;;19.12;33.23;100174.63;1723211;79;21465;-72
2021/06/01 10:21:03;;;;;;;5.28;2.12;;;;;;;18.79;34.32;100172.08;1663198;85;21091;-72
2021/06/01 10:23:35;;;;;;;4.15;2.00;;;;;;;18.55;34.55;100169.30;1665241;85;21689;-73
2021/06/01 10:26:03;;;;;;;5.00;1.77;;;;;;;18.40;37.07;100171.20;1666236;85;21119;-72
2021/06/01 10:28:37;;;;;;;5.00;1.50;;;;;;;18.48;36.34;100172.87;1664403;85;21084;-71
2021/06/01 10:31:00;;;;;;;7.08;1.75;;;;;;;18.94;37.33;100160.33;1666329;85;21079;-72
2021/06/01 10:33:34;;;;;;;4.60;1.47;;;;;;;19.47;37.08;100162.25;1625581;82;21108;-82
2021/06/01 10:36:15;;;;;;;9.45;1.72;;;;;;;20.00;31.80;100162.41;1633562;86;21099;-82
2021/06/01 10:50:21;;;;;;;3.58;1.30;;;;;;;19.56;31.78;100159.88;1652232;83;21145;-74
2021/06/01 10:52:35;;;;;;;4.35;1.50;;;;;;;19.45;32.32;100161.51;1648137;85;21065;-73
2021/06/01 10:55:10;;;;;;;5.47;1.50;;;;;;;19.54;32.82;100157.80;1623528;85;21129;-73
2021/06/01 10:57:59;;;;;;;2.92;1.35;;;;;;;19.73;33.27;100159.98;1639371;86;21144;-75
2021/06/01 11:03:32;;;;;;;14.15;1.42;;;;;;;19.87;32.46;100161.12;1682527;83;21778;-72
2021/06/01 11:06:02;;;;;;;10.38;1.52;;;;;;;19.71;32.47;100164.09;1646287;85;21091;-72
2021/06/01 11:08:45;;;;;;;2.83;1.32;;;;;;;19.75;31.32;100154.89;1643183;86;21162;-73
2021/06/01 11:11:33;;;;;;;5.87;1.60;;;;;;;19.76;32.81;100155.73;1658584;84;21218;-72
2021/06/01 11:14:03;;;;;;;7.10;2.12;;;;;;;19.69;34.05;100162.02;1655193;85;21154;-71
2021/06/01 11:16:53;;;;;;;11.55;1.85;;;;;;;19.46;33.11;100149.00;1695447;83;21162;-73
2021/06/01 11:19:23;;;;;;;3.83;1.65;;;;;;;19.22;33.50;100157.00;1687972;81;21147;-71
2021/06/01 11:21:57;;;;;;;6.55;2.12;;;;;;;18.97;34.39;100157.43;1672610;83;21131;-72
2021/06/01 11:33:14;;;;;;;6.30;1.67;;;;;;;19.16;33.58;100140.94;1664762;85;21620;-76
2021/06/01 11:35:41;;;;;;;2.67;1.60;;;;;;;19.65;32.84;100143.17;1695996;81;21631;-75
2021/06/01 11:38:20;;;;;;;9.18;1.40;;;;;;;19.81;32.85;100138.41;1706434;82;21545;-75
2021/06/01 11:41:06;;;;;;;8.18;1.62;;;;;;;19.84;32.38;100155.53;1721052;82;21102;-76
2021/06/01 11:43:26;;;;;;;7.00;1.50;;;;;;;20.04;32.62;100146.51;1712838;82;21109;-76
2021/06/01 11:51:26;;;;;;;8.70;1.90;;;;;;;19.57;34.29;100142.88;1663110;85;21153;-84
2021/06/01 11:54:05;;;;;;;9.70;1.65;;;;;;;19.31;33.42;100155.00;1642613;86;21083;-84
2021/06/01 11:57:14;;;;;;;7.85;1.47;;;;;;;18.98;32.98;100153.81;1723411;83;21122;-81
2021/06/01 12:03:18;;;;;;;9.70;1.70;;;;;;;18.76;37.00;100141.59;1705541;83;21146;-78
2021/06/01 12:05:20;;;;;;;7.70;1.70;;;;;;;18.78;33.56;100149.89;1649307;82;21172;-72
2021/06/01 12:19:10;;;;;;;11.63;1.72;;;;;;;19.10;33.17;100143.22;1673998;79;21716;-85
2021/06/01 12:21:53;;;;;;;7.65;2.00;;;;;;;18.81;34.45;100144.81;1761314;80;21083;-83
2021/06/01 12:24:24;;;;;;;7.08;2.00;;;;;;;18.74;34.73;100154.19;1756456;80;21108;-83
2021/06/01 12:32:29;;;;;;;1.60;1.50;;;;;;;18.73;33.87;100142.67;1821203;77;21063;-85
2021/06/01 12:35:07;;;;;;;4.70;1.50;;;;;;;18.62;33.50;100149.23;1795415;77;21094;-73
2021/06/01 12:46:27;;;;;;;3.95;2.50;;;;;;;18.08;36.30;100159.59;1735748;80;21043;-75
2021/06/01 13:12:32;;;;;;;5.47;1.60;;;;;;;18.20;34.56;100137.45;1697290;83;21141;-74
2021/06/01 13:20:40;;;;;;;9.95;1.80;;;;;;;17.88;35.28;100152.11;1667945;83;21138;-72
2021/06/01 13:37:13;;;;;;;6.65;2.30;;;;;;;17.25;35.92;100143.73;1710761;83;21107;-85
2021/06/01 13:39:41;;;;;;;6.97;2.15;;;;;;;17.29;35.94;100139.08;1706919;83;21123;-83
2021/06/01 13:50:46;;;;;;;10.40;2.02;;;;;;;17.58;35.56;100140.69;1706153;81;21097;-74
2021/06/01 13:55:05;;;;;;;10.15;2.27;;;;;;;17.46;35.92;100149.95;1733683;81;21050;-74
2021/06/01 13:55:35;;;;;;;5.78;2.22;;;;;;;17.37;36.58;100145.62;1739158;81;21093;-73